sensor_id;sensor_type;location;lat;lon;timestamp;P1;durP1;ratioP1;P2;durP2;ratioP2
50717;SDS011;60557;51.350;12.410;2023-04-01T00:01:22;2.33;;;1.00;;
50717;SDS011;60557;51.350;12.410;2023-04-01T00:03:48;2.40;;;0.60;;
50717;SDS011;60557;51.350;12.410;2023-04-01T00:06:15;3.83;;;0.95;;
50717;SDS011;60557;51.350;12.410;2023-04-01T00:08:42;4.53;;;1.13;;
50717;SDS011;60557;51.350;12.410;2023-04-01T00:11:09;4.45;;;1.42;;
50717;SDS011;60557;51.350;12.410;2023-04-01T00:13:35;7.30;;;2.67;;
50717;SDS011;60557;51.350;12.410;2023-04-01T00:16:01;4.88;;;2.00;;
50717;SDS011;60557;51.350;12.410;2023-04-01T00:18:29;2.15;;;1.05;;
50717;SDS011;60557;51.350;12.410;2023-04-01T00:20:57;5.72;;;1.33;;
50717;SDS011;60557;51.350;12.410;2023-04-01T00:23:26;2.97;;;1.02;;
50717;SDS011;60557;51.350;12.410;2023-04-01T00:25:52;4.95;;;1.35;;
50717;SDS011;60557;51.350;12.410;2023-04-01T00:28:23;3.88;;;0.90;;
50717;SDS011;60557;51.350;12.410;2023-04-01T00:30:52;6.82;;;1.17;;
50717;SDS011;60557;51.350;12.410;2023-04-01T00:33:18;2.30;;;1.00;;
50717;SDS011;60557;51.350;12.410;2023-04-01T00:35:45;5.88;;;1.45;;
50717;SDS011;60557;51.350;12.410;2023-04-01T00:38:11;4.57;;;1.13;;
50717;SDS011;60557;51.350;12.410;2023-04-01T00:40:39;5.18;;;0.82;;
50717;SDS011;60557;51.350;12.410;2023-04-01T00:43:14;3.97;;;1.00;;
50717;SDS011;60557;51.350;12.410;2023-04-01T00:45:41;5.55;;;1.00;;
50717;SDS011;60557;51.350;12.410;2023-04-01T00:48:15;7.97;;;0.82;;
50717;SDS011;60557;51.350;12.410;2023-04-01T00:50:43;9.85;;;1.42;;
50717;SDS011;60557;51.350;12.410;2023-04-01T00:53:10;4.97;;;1.05;;
50717;SDS011;60557;51.350;12.410;2023-04-01T00:55:39;4.38;;;1.35;;
50717;SDS011;60557;51.350;12.410;2023-04-01T00:58:07;4.05;;;1.00;;
50717;SDS011;60557;51.350;12.410;2023-04-01T01:00:34;6.53;;;1.40;;
50717;SDS011;60557;51.350;12.410;2023-04-01T01:03:01;7.28;;;1.60;;
50717;SDS011;60557;51.350;12.410;2023-04-01T01:05:37;4.55;;;1.30;;
50717;SDS011;60557;51.350;12.410;2023-04-01T01:08:15;2.30;;;1.02;;
50717;SDS011;60557;51.350;12.410;2023-04-01T01:10:48;3.42;;;1.13;;
50717;SDS011;60557;51.350;12.410;2023-04-01T01:13:34;2.83;;;0.88;;
50717;SDS011;60557;51.350;12.410;2023-04-01T01:16:06;2.90;;;1.05;;
50717;SDS011;60557;51.350;12.410;2023-04-01T01:18:40;3.45;;;1.00;;
50717;SDS011;60557;51.350;12.410;2023-04-01T01:24:08;2.72;;;0.90;;
50717;SDS011;60557;51.350;12.410;2023-04-01T01:37:08;4.05;;;1.20;;
50717;SDS011;60557;51.350;12.410;2023-04-01T01:39:36;8.27;;;1.67;;
50717;SDS011;60557;51.350;12.410;2023-04-01T01:42:04;6.20;;;2.90;;
50717;SDS011;60557;51.350;12.410;2023-04-01T01:44:30;3.38;;;0.70;;
50717;SDS011;60557;51.350;12.410;2023-04-01T01:46:57;4.00;;;0.93;;
50717;SDS011;60557;51.350;12.410;2023-04-01T01:49:24;3.15;;;0.75;;
50717;SDS011;60557;51.350;12.410;2023-04-01T01:51:55;5.38;;;0.95;;
50717;SDS011;60557;51.350;12.410;2023-04-01T01:54:21;5.53;;;1.75;;
50717;SDS011;60557;51.350;12.410;2023-04-01T01:56:49;2.90;;;0.88;;
50717;SDS011;60557;51.350;12.410;2023-04-01T01:59:17;2.88;;;0.82;;
50717;SDS011;60557;51.350;12.410;2023-04-01T02:01:45;5.88;;;1.05;;
50717;SDS011;60557;51.350;12.410;2023-04-01T02:04:14;1.13;;;0.50;;
50717;SDS011;60557;51.350;12.410;2023-04-01T02:06:43;2.15;;;0.50;;
50717;SDS011;60557;51.350;12.410;2023-04-01T02:09:11;6.75;;;0.90;;
50717;SDS011;60557;51.350;12.410;2023-04-01T02:14:10;4.78;;;1.05;;
50717;SDS011;60557;51.350;12.410;2023-04-01T02:19:22;5.32;;;0.70;;
50717;SDS011;60557;51.350;12.410;2023-04-01T02:21:53;4.50;;;0.82;;
50717;SDS011;60557;51.350;12.410;2023-04-01T02:24:20;2.15;;;0.85;;
50717;SDS011;60557;51.350;12.410;2023-04-01T02:26:49;2.60;;;0.80;;
50717;SDS011;60557;51.350;12.410;2023-04-01T02:29:16;3.30;;;1.23;;
50717;SDS011;60557;51.350;12.410;2023-04-01T02:31:44;3.15;;;0.90;;
50717;SDS011;60557;51.350;12.410;2023-04-01T02:34:10;2.55;;;0.75;;
50717;SDS011;60557;51.350;12.410;2023-04-01T02:36:36;4.13;;;0.93;;
50717;SDS011;60557;51.350;12.410;2023-04-01T02:39:03;3.90;;;0.90;;
50717;SDS011;60557;51.350;12.410;2023-04-01T02:41:29;3.30;;;0.85;;
50717;SDS011;60557;51.350;12.410;2023-04-01T02:43:56;2.75;;;1.00;;
50717;SDS011;60557;51.350;12.410;2023-04-01T02:46:23;6.38;;;0.80;;
50717;SDS011;60557;51.350;12.410;2023-04-01T02:48:52;6.68;;;2.08;;
50717;SDS011;60557;51.350;12.410;2023-04-01T02:51:18;2.88;;;0.90;;
50717;SDS011;60557;51.350;12.410;2023-04-01T02:53:47;7.10;;;1.00;;
50717;SDS011;60557;51.350;12.410;2023-04-01T02:56:13;3.70;;;0.80;;
50717;SDS011;60557;51.350;12.410;2023-04-01T02:58:39;6.10;;;1.75;;
50717;SDS011;60557;51.350;12.410;2023-04-01T03:01:05;6.43;;;1.13;;
50717;SDS011;60557;51.350;12.410;2023-04-01T03:03:33;3.20;;;0.82;;
50717;SDS011;60557;51.350;12.410;2023-04-01T03:06:05;3.75;;;0.80;;
50717;SDS011;60557;51.350;12.410;2023-04-01T03:08:34;3.55;;;0.75;;
50717;SDS011;60557;51.350;12.410;2023-04-01T03:11:00;4.15;;;2.17;;
50717;SDS011;60557;51.350;12.410;2023-04-01T03:13:26;4.05;;;0.93;;
50717;SDS011;60557;51.350;12.410;2023-04-01T03:15:55;6.10;;;0.68;;
50717;SDS011;60557;51.350;12.410;2023-04-01T03:18:22;5.70;;;1.00;;
50717;SDS011;60557;51.350;12.410;2023-04-01T03:20:48;4.60;;;1.40;;
50717;SDS011;60557;51.350;12.410;2023-04-01T03:23:14;16.00;;;1.30;;
50717;SDS011;60557;51.350;12.410;2023-04-01T03:25:42;7.35;;;1.20;;
50717;SDS011;60557;51.350;12.410;2023-04-01T03:28:08;4.60;;;1.05;;
50717;SDS011;60557;51.350;12.410;2023-04-01T03:30:34;3.47;;;1.08;;
50717;SDS011;60557;51.350;12.410;2023-04-01T03:33:01;4.82;;;1.27;;
50717;SDS011;60557;51.350;12.410;2023-04-01T03:35:27;3.88;;;0.80;;
50717;SDS011;60557;51.350;12.410;2023-04-01T03:37:53;5.47;;;0.95;;
50717;SDS011;60557;51.350;12.410;2023-04-01T03:40:22;3.70;;;1.05;;
50717;SDS011;60557;51.350;12.410;2023-04-01T03:42:48;3.22;;;1.13;;
50717;SDS011;60557;51.350;12.410;2023-04-01T03:45:15;4.25;;;1.27;;
50717;SDS011;60557;51.350;12.410;2023-04-01T03:47:41;5.63;;;0.80;;
50717;SDS011;60557;51.350;12.410;2023-04-01T03:50:08;9.15;;;1.00;;
50717;SDS011;60557;51.350;12.410;2023-04-01T03:52:34;5.88;;;1.02;;
50717;SDS011;60557;51.350;12.410;2023-04-01T03:55:01;4.93;;;1.10;;
50717;SDS011;60557;51.350;12.410;2023-04-01T03:57:32;3.03;;;1.02;;
50717;SDS011;60557;51.350;12.410;2023-04-01T03:59:58;3.00;;;0.95;;
50717;SDS011;60557;51.350;12.410;2023-04-01T04:02:24;5.05;;;0.70;;
50717;SDS011;60557;51.350;12.410;2023-04-01T04:04:50;4.43;;;0.85;;
50717;SDS011;60557;51.350;12.410;2023-04-01T04:07:19;7.05;;;0.90;;
50717;SDS011;60557;51.350;12.410;2023-04-01T04:09:47;3.67;;;1.55;;
50717;SDS011;60557;51.350;12.410;2023-04-01T04:12:15;3.28;;;0.77;;
50717;SDS011;60557;51.350;12.410;2023-04-01T04:14:43;7.10;;;1.95;;
50717;SDS011;60557;51.350;12.410;2023-04-01T04:17:10;5.25;;;0.93;;
50717;SDS011;60557;51.350;12.410;2023-04-01T04:19:41;6.25;;;0.85;;
50717;SDS011;60557;51.350;12.410;2023-04-01T04:22:07;4.95;;;1.00;;
50717;SDS011;60557;51.350;12.410;2023-04-01T04:24:36;5.30;;;1.00;;
50717;SDS011;60557;51.350;12.410;2023-04-01T04:27:04;2.13;;;0.80;;
50717;SDS011;60557;51.350;12.410;2023-04-01T04:29:30;6.35;;;0.95;;
50717;SDS011;60557;51.350;12.410;2023-04-01T04:31:56;3.67;;;0.80;;
50717;SDS011;60557;51.350;12.410;2023-04-01T04:34:22;3.20;;;0.88;;
50717;SDS011;60557;51.350;12.410;2023-04-01T04:36:51;4.43;;;0.90;;
50717;SDS011;60557;51.350;12.410;2023-04-01T04:39:17;6.50;;;1.15;;
50717;SDS011;60557;51.350;12.410;2023-04-01T04:41:43;3.05;;;0.80;;
50717;SDS011;60557;51.350;12.410;2023-04-01T04:44:09;5.10;;;0.70;;
50717;SDS011;60557;51.350;12.410;2023-04-01T04:46:35;6.03;;;1.52;;
50717;SDS011;60557;51.350;12.410;2023-04-01T04:49:03;4.78;;;0.80;;
50717;SDS011;60557;51.350;12.410;2023-04-01T04:51:29;2.53;;;0.65;;
50717;SDS011;60557;51.350;12.410;2023-04-01T04:53:55;5.72;;;0.95;;
50717;SDS011;60557;51.350;12.410;2023-04-01T04:56:21;7.30;;;0.82;;
50717;SDS011;60557;51.350;12.410;2023-04-01T04:58:50;2.60;;;0.65;;
50717;SDS011;60557;51.350;12.410;2023-04-01T05:01:18;4.93;;;1.05;;
50717;SDS011;60557;51.350;12.410;2023-04-01T05:03:44;6.78;;;1.10;;
50717;SDS011;60557;51.350;12.410;2023-04-01T05:06:11;4.68;;;1.00;;
50717;SDS011;60557;51.350;12.410;2023-04-01T05:08:38;5.55;;;0.95;;
50717;SDS011;60557;51.350;12.410;2023-04-01T05:11:06;3.00;;;0.90;;
50717;SDS011;60557;51.350;12.410;2023-04-01T05:13:35;6.85;;;1.15;;
50717;SDS011;60557;51.350;12.410;2023-04-01T05:16:01;5.55;;;0.90;;
50717;SDS011;60557;51.350;12.410;2023-04-01T05:18:29;3.40;;;0.90;;
50717;SDS011;60557;51.350;12.410;2023-04-01T05:20:58;4.18;;;1.25;;
50717;SDS011;60557;51.350;12.410;2023-04-01T05:23:24;2.22;;;0.90;;
50717;SDS011;60557;51.350;12.410;2023-04-01T05:25:52;10.93;;;1.15;;
50717;SDS011;60557;51.350;12.410;2023-04-01T05:28:19;4.50;;;1.40;;
50717;SDS011;60557;51.350;12.410;2023-04-01T05:30:45;6.07;;;0.82;;
50717;SDS011;60557;51.350;12.410;2023-04-01T05:33:12;7.30;;;1.80;;
50717;SDS011;60557;51.350;12.410;2023-04-01T05:35:41;4.18;;;1.20;;
50717;SDS011;60557;51.350;12.410;2023-04-01T05:38:07;3.80;;;1.02;;
50717;SDS011;60557;51.350;12.410;2023-04-01T05:40:33;5.35;;;1.10;;
50717;SDS011;60557;51.350;12.410;2023-04-01T05:42:59;5.65;;;1.00;;
50717;SDS011;60557;51.350;12.410;2023-04-01T05:45:26;4.65;;;1.30;;
50717;SDS011;60557;51.350;12.410;2023-04-01T05:47:52;5.00;;;0.82;;
50717;SDS011;60557;51.350;12.410;2023-04-01T05:50:18;5.00;;;1.10;;
50717;SDS011;60557;51.350;12.410;2023-04-01T05:52:46;5.05;;;1.75;;
50717;SDS011;60557;51.350;12.410;2023-04-01T05:55:13;4.05;;;0.70;;
50717;SDS011;60557;51.350;12.410;2023-04-01T05:57:39;5.30;;;1.20;;
50717;SDS011;60557;51.350;12.410;2023-04-01T06:00:05;2.33;;;0.70;;
50717;SDS011;60557;51.350;12.410;2023-04-01T06:02:31;3.13;;;0.93;;
50717;SDS011;60557;51.350;12.410;2023-04-01T06:05:08;5.32;;;1.10;;
50717;SDS011;60557;51.350;12.410;2023-04-01T06:07:39;3.70;;;1.08;;
50717;SDS011;60557;51.350;12.410;2023-04-01T06:10:13;4.45;;;1.33;;
50717;SDS011;60557;51.350;12.410;2023-04-01T06:12:51;6.50;;;2.05;;
50717;SDS011;60557;51.350;12.410;2023-04-01T06:15:36;5.18;;;1.70;;
50717;SDS011;60557;51.350;12.410;2023-04-01T06:23:19;5.90;;;1.38;;
50717;SDS011;60557;51.350;12.410;2023-04-01T06:31:01;5.05;;;0.95;;
50717;SDS011;60557;51.350;12.410;2023-04-01T06:43:29;3.88;;;1.25;;
50717;SDS011;60557;51.350;12.410;2023-04-01T06:46:11;4.13;;;1.42;;
50717;SDS011;60557;51.350;12.410;2023-04-01T06:54:15;4.80;;;1.10;;
50717;SDS011;60557;51.350;12.410;2023-04-01T06:56:44;4.05;;;0.75;;
50717;SDS011;60557;51.350;12.410;2023-04-01T06:59:17;2.85;;;0.93;;
50717;SDS011;60557;51.350;12.410;2023-04-01T07:01:45;4.30;;;1.10;;
50717;SDS011;60557;51.350;12.410;2023-04-01T07:09:33;4.97;;;1.30;;
50717;SDS011;60557;51.350;12.410;2023-04-01T07:12:01;10.23;;;2.70;;
50717;SDS011;60557;51.350;12.410;2023-04-01T07:14:37;2.92;;;0.80;;
50717;SDS011;60557;51.350;12.410;2023-04-01T07:17:15;1.90;;;0.52;;
50717;SDS011;60557;51.350;12.410;2023-04-01T07:24:56;4.10;;;1.00;;
50717;SDS011;60557;51.350;12.410;2023-04-01T07:27:26;3.08;;;0.60;;
50717;SDS011;60557;51.350;12.410;2023-04-01T07:29:55;2.17;;;0.80;;
50717;SDS011;60557;51.350;12.410;2023-04-01T07:32:38;4.88;;;1.02;;
50717;SDS011;60557;51.350;12.410;2023-04-01T07:35:20;3.40;;;1.23;;
50717;SDS011;60557;51.350;12.410;2023-04-01T07:40:37;7.70;;;3.47;;
50717;SDS011;60557;51.350;12.410;2023-04-01T07:56:26;5.68;;;2.03;;
50717;SDS011;60557;51.350;12.410;2023-04-01T07:59:07;4.72;;;1.40;;
50717;SDS011;60557;51.350;12.410;2023-04-01T08:07:28;3.30;;;0.75;;
50717;SDS011;60557;51.350;12.410;2023-04-01T08:17:32;2.30;;;1.10;;
50717;SDS011;60557;51.350;12.410;2023-04-01T08:22:53;2.38;;;0.45;;
50717;SDS011;60557;51.350;12.410;2023-04-01T08:31:11;6.47;;;1.58;;
50717;SDS011;60557;51.350;12.410;2023-04-01T08:33:42;2.72;;;0.80;;
50717;SDS011;60557;51.350;12.410;2023-04-01T08:36:34;2.28;;;0.40;;
50717;SDS011;60557;51.350;12.410;2023-04-01T08:46:56;2.03;;;0.55;;
50717;SDS011;60557;51.350;12.410;2023-04-01T09:00:32;3.03;;;0.70;;
50717;SDS011;60557;51.350;12.410;2023-04-01T09:21:28;5.07;;;1.77;;
50717;SDS011;60557;51.350;12.410;2023-04-01T09:55:27;2.20;;;0.70;;
50717;SDS011;60557;51.350;12.410;2023-04-01T10:03:07;6.20;;;1.50;;
50717;SDS011;60557;51.350;12.410;2023-04-01T10:16:03;5.25;;;2.65;;
50717;SDS011;60557;51.350;12.410;2023-04-01T10:35:09;6.40;;;1.10;;
50717;SDS011;60557;51.350;12.410;2023-04-01T10:37:39;5.10;;;1.42;;
50717;SDS011;60557;51.350;12.410;2023-04-01T10:40:20;2.75;;;1.10;;
50717;SDS011;60557;51.350;12.410;2023-04-01T10:58:27;1.25;;;0.50;;
50717;SDS011;60557;51.350;12.410;2023-04-01T11:03:33;0.90;;;0.40;;
50717;SDS011;60557;51.350;12.410;2023-04-01T11:11:26;1.38;;;0.40;;
50717;SDS011;60557;51.350;12.410;2023-04-01T11:14:15;3.15;;;0.75;;
50717;SDS011;60557;51.350;12.410;2023-04-01T11:40:54;3.10;;;0.80;;
50717;SDS011;60557;51.350;12.410;2023-04-01T11:43:27;1.77;;;0.50;;
50717;SDS011;60557;51.350;12.410;2023-04-01T11:56:34;1.35;;;0.35;;
50717;SDS011;60557;51.350;12.410;2023-04-01T12:01:35;1.30;;;0.35;;
50717;SDS011;60557;51.350;12.410;2023-04-01T12:14:36;1.52;;;0.30;;
50717;SDS011;60557;51.350;12.410;2023-04-01T12:17:26;0.98;;;0.30;;
50717;SDS011;60557;51.350;12.410;2023-04-01T12:19:56;0.80;;;0.30;;
50717;SDS011;60557;51.350;12.410;2023-04-01T12:30:01;1.65;;;0.30;;
50717;SDS011;60557;51.350;12.410;2023-04-01T12:35:16;5.18;;;0.43;;
50717;SDS011;60557;51.350;12.410;2023-04-01T12:53:25;1.42;;;0.45;;
50717;SDS011;60557;51.350;12.410;2023-04-01T12:55:59;1.83;;;0.93;;
50717;SDS011;60557;51.350;12.410;2023-04-01T13:01:19;1.05;;;0.35;;
50717;SDS011;60557;51.350;12.410;2023-04-01T13:03:53;1.80;;;0.40;;
50717;SDS011;60557;51.350;12.410;2023-04-01T13:12:02;5.50;;;2.10;;
50717;SDS011;60557;51.350;12.410;2023-04-01T13:14:50;1.10;;;0.40;;
50717;SDS011;60557;51.350;12.410;2023-04-01T13:17:22;1.98;;;0.75;;
50717;SDS011;60557;51.350;12.410;2023-04-01T13:25:10;0.65;;;0.35;;
50717;SDS011;60557;51.350;12.410;2023-04-01T13:27:45;0.85;;;0.57;;
50717;SDS011;60557;51.350;12.410;2023-04-01T13:30:27;1.98;;;0.80;;
50717;SDS011;60557;51.350;12.410;2023-04-01T13:38:32;2.58;;;1.20;;
50717;SDS011;60557;51.350;12.410;2023-04-01T13:41:31;3.40;;;0.80;;
50717;SDS011;60557;51.350;12.410;2023-04-01T13:43:44;1.60;;;0.80;;
50717;SDS011;60557;51.350;12.410;2023-04-01T13:54:25;2.53;;;0.70;;
50717;SDS011;60557;51.350;12.410;2023-04-01T14:02:13;3.35;;;1.23;;
50717;SDS011;60557;51.350;12.410;2023-04-01T14:15:31;1.58;;;0.70;;
50717;SDS011;60557;51.350;12.410;2023-04-01T14:18:05;2.75;;;0.82;;
50717;SDS011;60557;51.350;12.410;2023-04-01T14:33:30;1.98;;;0.95;;
50717;SDS011;60557;51.350;12.410;2023-04-01T14:41:21;5.47;;;1.30;;
50717;SDS011;60557;51.350;12.410;2023-04-01T14:43:59;2.03;;;1.23;;
50717;SDS011;60557;51.350;12.410;2023-04-01T14:49:13;3.20;;;1.45;;
50717;SDS011;60557;51.350;12.410;2023-04-01T14:51:40;2.33;;;0.80;;
50717;SDS011;60557;51.350;12.410;2023-04-01T14:54:16;1.95;;;1.00;;
50717;SDS011;60557;51.350;12.410;2023-04-01T14:56:48;1.42;;;0.63;;
50717;SDS011;60557;51.350;12.410;2023-04-01T15:01:59;1.67;;;1.10;;
50717;SDS011;60557;51.350;12.410;2023-04-01T15:09:48;1.73;;;0.82;;
50717;SDS011;60557;51.350;12.410;2023-04-01T15:17:51;3.83;;;1.10;;
50717;SDS011;60557;51.350;12.410;2023-04-01T15:31:24;1.30;;;0.77;;
50717;SDS011;60557;51.350;12.410;2023-04-01T15:36:49;1.77;;;0.60;;
50717;SDS011;60557;51.350;12.410;2023-04-01T15:47:04;7.20;;;3.78;;
50717;SDS011;60557;51.350;12.410;2023-04-01T15:49:42;6.00;;;2.50;;
50717;SDS011;60557;51.350;12.410;2023-04-01T15:54:52;3.17;;;1.42;;
50717;SDS011;60557;51.350;12.410;2023-04-01T15:59:51;4.50;;;0.80;;
50717;SDS011;60557;51.350;12.410;2023-04-01T16:05:07;5.78;;;0.77;;
50717;SDS011;60557;51.350;12.410;2023-04-01T16:12:53;2.72;;;1.40;;
50717;SDS011;60557;51.350;12.410;2023-04-01T16:15:26;3.28;;;0.90;;
50717;SDS011;60557;51.350;12.410;2023-04-01T16:23:00;3.80;;;0.82;;
50717;SDS011;60557;51.350;12.410;2023-04-01T16:25:36;4.45;;;1.02;;
50717;SDS011;60557;51.350;12.410;2023-04-01T16:31:06;7.28;;;1.52;;
50717;SDS011;60557;51.350;12.410;2023-04-01T16:33:49;2.88;;;1.13;;
50717;SDS011;60557;51.350;12.410;2023-04-01T16:36:28;2.78;;;1.30;;
50717;SDS011;60557;51.350;12.410;2023-04-01T16:39:08;6.05;;;1.10;;
50717;SDS011;60557;51.350;12.410;2023-04-01T16:41:40;2.40;;;1.08;;
50717;SDS011;60557;51.350;12.410;2023-04-01T16:44:09;5.88;;;1.23;;
50717;SDS011;60557;51.350;12.410;2023-04-01T16:46:40;4.68;;;0.80;;
50717;SDS011;60557;51.350;12.410;2023-04-01T16:51:35;2.78;;;1.20;;
50717;SDS011;60557;51.350;12.410;2023-04-01T16:56:42;3.05;;;1.13;;
50717;SDS011;60557;51.350;12.410;2023-04-01T17:01:48;3.80;;;1.58;;
50717;SDS011;60557;51.350;12.410;2023-04-01T17:06:55;7.78;;;3.38;;
50717;SDS011;60557;51.350;12.410;2023-04-01T17:25:28;2.55;;;1.15;;
50717;SDS011;60557;51.350;12.410;2023-04-01T17:48:59;3.17;;;1.60;;
50717;SDS011;60557;51.350;12.410;2023-04-01T17:51:34;3.45;;;1.52;;
50717;SDS011;60557;51.350;12.410;2023-04-01T17:59:36;3.13;;;1.77;;
50717;SDS011;60557;51.350;12.410;2023-04-01T18:02:06;4.45;;;2.03;;
50717;SDS011;60557;51.350;12.410;2023-04-01T18:04:42;7.28;;;3.08;;
50717;SDS011;60557;51.350;12.410;2023-04-01T18:12:53;4.18;;;2.83;;
50717;SDS011;60557;51.350;12.410;2023-04-01T18:15:35;5.13;;;2.58;;
50717;SDS011;60557;51.350;12.410;2023-04-01T18:23:39;6.85;;;2.80;;
50717;SDS011;60557;51.350;12.410;2023-04-01T18:26:13;6.60;;;2.40;;
50717;SDS011;60557;51.350;12.410;2023-04-01T18:28:41;7.97;;;1.52;;
50717;SDS011;60557;51.350;12.410;2023-04-01T18:38:50;2.95;;;1.80;;
50717;SDS011;60557;51.350;12.410;2023-04-01T18:49:16;2.97;;;1.80;;
50717;SDS011;60557;51.350;12.410;2023-04-01T18:51:45;3.20;;;1.48;;
50717;SDS011;60557;51.350;12.410;2023-04-01T18:54:32;9.57;;;5.25;;
50717;SDS011;60557;51.350;12.410;2023-04-01T18:57:00;8.77;;;4.78;;
50717;SDS011;60557;51.350;12.410;2023-04-01T18:59:29;10.98;;;6.97;;
50717;SDS011;60557;51.350;12.410;2023-04-01T19:07:40;4.85;;;2.08;;
50717;SDS011;60557;51.350;12.410;2023-04-01T19:26:11;5.68;;;3.28;;
50717;SDS011;60557;51.350;12.410;2023-04-01T19:28:54;4.45;;;2.58;;
50717;SDS011;60557;51.350;12.410;2023-04-01T19:34:06;3.58;;;2.85;;
50717;SDS011;60557;51.350;12.410;2023-04-01T19:42:12;4.05;;;3.20;;
50717;SDS011;60557;51.350;12.410;2023-04-01T19:48:14;3.60;;;2.53;;
50717;SDS011;60557;51.350;12.410;2023-04-01T19:50:22;8.38;;;2.90;;
50717;SDS011;60557;51.350;12.410;2023-04-01T19:52:51;3.45;;;2.67;;
50717;SDS011;60557;51.350;12.410;2023-04-01T19:58:47;5.20;;;2.67;;
50717;SDS011;60557;51.350;12.410;2023-04-01T20:00:43;3.45;;;3.15;;
50717;SDS011;60557;51.350;12.410;2023-04-01T20:19:38;5.93;;;3.65;;
50717;SDS011;60557;51.350;12.410;2023-04-01T20:24:58;5.80;;;2.60;;
50717;SDS011;60557;51.350;12.410;2023-04-01T20:27:31;3.45;;;2.70;;
50717;SDS011;60557;51.350;12.410;2023-04-01T20:38:18;4.95;;;3.10;;
50717;SDS011;60557;51.350;12.410;2023-04-01T20:40:49;4.63;;;2.97;;
50717;SDS011;60557;51.350;12.410;2023-04-01T20:46:11;3.70;;;2.85;;
50717;SDS011;60557;51.350;12.410;2023-04-01T20:48:49;4.47;;;3.60;;
50717;SDS011;60557;51.350;12.410;2023-04-01T20:51:20;4.22;;;2.97;;
50717;SDS011;60557;51.350;12.410;2023-04-01T20:59:16;5.00;;;3.60;;
50717;SDS011;60557;51.350;12.410;2023-04-01T21:15:16;4.80;;;3.42;;
50717;SDS011;60557;51.350;12.410;2023-04-01T21:17:57;4.07;;;3.38;;
50717;SDS011;60557;51.350;12.410;2023-04-01T21:28:33;5.35;;;3.47;;
50717;SDS011;60557;51.350;12.410;2023-04-01T21:41:49;4.97;;;3.80;;
50717;SDS011;60557;51.350;12.410;2023-04-01T22:00:24;4.80;;;4.07;;
50717;SDS011;60557;51.350;12.410;2023-04-01T22:02:58;4.97;;;3.60;;
50717;SDS011;60557;51.350;12.410;2023-04-01T22:15:54;5.22;;;3.67;;
50717;SDS011;60557;51.350;12.410;2023-04-01T22:18:33;4.20;;;3.42;;
50717;SDS011;60557;51.350;12.410;2023-04-01T22:32:00;3.75;;;2.67;;
50717;SDS011;60557;51.350;12.410;2023-04-01T22:42:07;3.15;;;2.08;;
50717;SDS011;60557;51.350;12.410;2023-04-01T22:54:40;3.83;;;2.78;;
50717;SDS011;60557;51.350;12.410;2023-04-01T22:59:57;4.22;;;3.35;;
50717;SDS011;60557;51.350;12.410;2023-04-01T23:02:30;3.72;;;2.33;;
50717;SDS011;60557;51.350;12.410;2023-04-01T23:05:02;4.97;;;2.72;;
50717;SDS011;60557;51.350;12.410;2023-04-01T23:10:28;4.97;;;2.90;;
50717;SDS011;60557;51.350;12.410;2023-04-01T23:12:58;4.30;;;2.97;;
50717;SDS011;60557;51.350;12.410;2023-04-01T23:15:26;3.63;;;2.58;;
50717;SDS011;60557;51.350;12.410;2023-04-01T23:20:47;3.97;;;2.63;;
50717;SDS011;60557;51.350;12.410;2023-04-01T23:23:27;4.20;;;3.03;;
50717;SDS011;60557;51.350;12.410;2023-04-01T23:26:04;4.05;;;2.75;;
50717;SDS011;60557;51.350;12.410;2023-04-01T23:28:36;3.88;;;3.05;;
50717;SDS011;60557;51.350;12.410;2023-04-01T23:31:24;3.33;;;2.35;;
50717;SDS011;60557;51.350;12.410;2023-04-01T23:34:01;5.28;;;3.08;;
50717;SDS011;60557;51.350;12.410;2023-04-01T23:36:28;3.70;;;2.53;;
50717;SDS011;60557;51.350;12.410;2023-04-01T23:38:55;3.15;;;2.40;;
50717;SDS011;60557;51.350;12.410;2023-04-01T23:41:25;3.50;;;2.55;;
50717;SDS011;60557;51.350;12.410;2023-04-01T23:43:54;4.88;;;3.10;;
50717;SDS011;60557;51.350;12.410;2023-04-01T23:46:21;2.80;;;2.50;;
50717;SDS011;60557;51.350;12.410;2023-04-01T23:48:47;6.68;;;3.38;;
50717;SDS011;60557;51.350;12.410;2023-04-01T23:51:20;4.88;;;2.88;;
50717;SDS011;60557;51.350;12.410;2023-04-01T23:53:47;4.13;;;2.55;;
50717;SDS011;60557;51.350;12.410;2023-04-01T23:56:17;3.97;;;2.67;;
50717;SDS011;60557;51.350;12.410;2023-04-01T23:58:49;3.95;;;2.83;;
